sensor_id;sensor_type;location;lat;lon;timestamp;pressure;altitude;pressure_sealevel;temperature;humidity
53246;BME280;39569;51.090;-1.786;2023-04-21T00:00:49;101012.59;;;14.79;48.46
53246;BME280;39569;51.090;-1.786;2023-04-21T00:03:16;101007.69;;;14.89;47.97
53246;BME280;39569;51.090;-1.786;2023-04-21T00:05:44;101010.03;;;14.71;48.64
53246;BME280;39569;51.090;-1.786;2023-04-21T00:08:13;101013.03;;;14.61;48.95
53246;BME280;39569;51.090;-1.786;2023-04-21T00:10:40;101004.66;;;14.50;49.10
53246;BME280;39569;51.090;-1.786;2023-04-21T00:13:07;101004.25;;;14.74;48.36
53246;BME280;39569;51.090;-1.786;2023-04-21T00:15:34;101004.56;;;14.64;48.38
53246;BME280;39569;51.090;-1.786;2023-04-21T00:18:00;101003.00;;;14.49;48.96
53246;BME280;39569;51.090;-1.786;2023-04-21T00:20:28;100991.84;;;14.73;47.97
53246;BME280;39569;51.090;-1.786;2023-04-21T00:22:55;101002.25;;;14.83;47.81
53246;BME280;39569;51.090;-1.786;2023-04-21T00:25:24;100999.94;;;14.79;47.65
53246;BME280;39569;51.090;-1.786;2023-04-21T00:27:51;100988.50;;;14.71;47.96
53246;BME280;39569;51.090;-1.786;2023-04-21T00:30:18;100988.41;;;14.58;48.13
53246;BME280;39569;51.090;-1.786;2023-04-21T00:32:45;100983.31;;;14.42;48.33
53246;BME280;39569;51.090;-1.786;2023-04-21T00:35:12;100986.34;;;14.60;48.16
53246;BME280;39569;51.090;-1.786;2023-04-21T00:37:39;100984.00;;;14.50;48.17
53246;BME280;39569;51.090;-1.786;2023-04-21T00:40:07;100987.13;;;14.54;48.39
53246;BME280;39569;51.090;-1.786;2023-04-21T00:42:35;100981.31;;;14.50;48.50
53246;BME280;39569;51.090;-1.786;2023-04-21T00:45:02;100984.19;;;14.49;48.22
53246;BME280;39569;51.090;-1.786;2023-04-21T00:47:29;100986.13;;;14.55;48.96
53246;BME280;39569;51.090;-1.786;2023-04-21T00:49:56;100987.34;;;14.59;49.09
53246;BME280;39569;51.090;-1.786;2023-04-21T00:52:23;100977.41;;;14.53;49.53
53246;BME280;39569;51.090;-1.786;2023-04-21T00:54:50;100970.22;;;14.39;50.27
53246;BME280;39569;51.090;-1.786;2023-04-21T00:57:19;100973.38;;;14.42;50.27
53246;BME280;39569;51.090;-1.786;2023-04-21T00:59:47;100964.94;;;15.01;48.92
53246;BME280;39569;51.090;-1.786;2023-04-21T01:02:16;100970.06;;;14.68;49.60
53246;BME280;39569;51.090;-1.786;2023-04-21T01:04:43;100966.13;;;14.92;48.60
53246;BME280;39569;51.090;-1.786;2023-04-21T01:07:10;100965.59;;;14.75;49.32
53246;BME280;39569;51.090;-1.786;2023-04-21T01:09:37;100966.69;;;14.87;48.85
53246;BME280;39569;51.090;-1.786;2023-04-21T01:12:05;100958.25;;;15.24;48.19
53246;BME280;39569;51.090;-1.786;2023-04-21T01:14:33;100960.53;;;15.27;48.17
53246;BME280;39569;51.090;-1.786;2023-04-21T01:17:01;100947.13;;;15.34;48.07
53246;BME280;39569;51.090;-1.786;2023-04-21T01:19:31;100948.84;;;15.48;47.74
53246;BME280;39569;51.090;-1.786;2023-04-21T01:22:01;100941.75;;;15.40;48.44
53246;BME280;39569;51.090;-1.786;2023-04-21T01:24:38;100946.88;;;15.69;47.44
53246;BME280;39569;51.090;-1.786;2023-04-21T01:27:08;100951.00;;;15.65;47.68
53246;BME280;39569;51.090;-1.786;2023-04-21T01:29:36;100949.97;;;15.60;47.84
53246;BME280;39569;51.090;-1.786;2023-04-21T01:32:05;100948.75;;;15.69;47.87
53246;BME280;39569;51.090;-1.786;2023-04-21T01:34:32;100950.69;;;15.95;47.59
53246;BME280;39569;51.090;-1.786;2023-04-21T01:37:01;100950.28;;;16.11;47.32
53246;BME280;39569;51.090;-1.786;2023-04-21T01:39:28;100941.81;;;16.14;46.81
53246;BME280;39569;51.090;-1.786;2023-04-21T01:41:55;100947.59;;;16.04;47.41
53246;BME280;39569;51.090;-1.786;2023-04-21T01:44:24;100941.75;;;15.94;47.27
53246;BME280;39569;51.090;-1.786;2023-04-21T01:46:51;100944.78;;;15.65;47.91
53246;BME280;39569;51.090;-1.786;2023-04-21T01:49:18;100939.81;;;15.68;47.72
53246;BME280;39569;51.090;-1.786;2023-04-21T01:51:45;100932.91;;;16.07;47.17
53246;BME280;39569;51.090;-1.786;2023-04-21T01:54:13;100935.75;;;15.86;47.81
53246;BME280;39569;51.090;-1.786;2023-04-21T01:56:40;100931.41;;;15.91;47.68
53246;BME280;39569;51.090;-1.786;2023-04-21T01:59:07;100922.94;;;16.14;46.89
53246;BME280;39569;51.090;-1.786;2023-04-21T02:01:33;100923.09;;;15.80;47.54
53246;BME280;39569;51.090;-1.786;2023-04-21T02:04:01;100925.44;;;16.15;47.18
53246;BME280;39569;51.090;-1.786;2023-04-21T02:06:28;100921.09;;;16.21;46.90
53246;BME280;39569;51.090;-1.786;2023-04-21T02:08:55;100920.47;;;16.19;46.82
53246;BME280;39569;51.090;-1.786;2023-04-21T02:11:23;100911.97;;;16.35;46.47
53246;BME280;39569;51.090;-1.786;2023-04-21T02:13:51;100915.28;;;16.43;46.19
53246;BME280;39569;51.090;-1.786;2023-04-21T02:16:18;100914.28;;;16.57;46.18
53246;BME280;39569;51.090;-1.786;2023-04-21T02:18:45;100908.88;;;16.38;46.52
53246;BME280;39569;51.090;-1.786;2023-04-21T02:21:13;100906.75;;;16.07;47.33
53246;BME280;39569;51.090;-1.786;2023-04-21T02:23:39;100898.28;;;16.23;46.56
53246;BME280;39569;51.090;-1.786;2023-04-21T02:26:06;100896.22;;;16.25;46.60
53246;BME280;39569;51.090;-1.786;2023-04-21T02:28:34;100897.47;;;16.36;46.35
53246;BME280;39569;51.090;-1.786;2023-04-21T02:31:01;100894.34;;;16.26;46.43
53246;BME280;39569;51.090;-1.786;2023-04-21T02:33:28;100895.75;;;16.09;46.98
53246;BME280;39569;51.090;-1.786;2023-04-21T02:35:55;100895.16;;;16.13;46.86
53246;BME280;39569;51.090;-1.786;2023-04-21T02:38:22;100887.94;;;16.27;46.44
53246;BME280;39569;51.090;-1.786;2023-04-21T02:40:49;100897.84;;;16.00;47.08
53246;BME280;39569;51.090;-1.786;2023-04-21T02:43:16;100896.59;;;16.09;46.81
53246;BME280;39569;51.090;-1.786;2023-04-21T02:45:44;100888.13;;;16.32;46.65
53246;BME280;39569;51.090;-1.786;2023-04-21T02:48:11;100881.88;;;16.18;46.51
53246;BME280;39569;51.090;-1.786;2023-04-21T02:50:38;100878.38;;;16.05;46.70
53246;BME280;39569;51.090;-1.786;2023-04-21T02:53:05;100881.72;;;16.20;46.80
53246;BME280;39569;51.090;-1.786;2023-04-21T02:55:32;100877.53;;;16.24;46.51
53246;BME280;39569;51.090;-1.786;2023-04-21T02:57:59;100873.41;;;16.21;46.71
53246;BME280;39569;51.090;-1.786;2023-04-21T03:00:26;100871.72;;;16.20;46.77
53246;BME280;39569;51.090;-1.786;2023-04-21T03:02:54;100871.53;;;16.22;46.85
53246;BME280;39569;51.090;-1.786;2023-04-21T03:05:21;100870.06;;;16.13;47.19
53246;BME280;39569;51.090;-1.786;2023-04-21T03:07:48;100865.53;;;16.07;47.46
53246;BME280;39569;51.090;-1.786;2023-04-21T03:10:15;100863.66;;;16.14;47.40
53246;BME280;39569;51.090;-1.786;2023-04-21T03:12:41;100858.50;;;16.12;47.44
53246;BME280;39569;51.090;-1.786;2023-04-21T03:15:08;100856.59;;;16.13;47.50
53246;BME280;39569;51.090;-1.786;2023-04-21T03:17:35;100837.94;;;16.24;47.03
53246;BME280;39569;51.090;-1.786;2023-04-21T03:20:05;100846.63;;;16.46;46.87
53246;BME280;39569;51.090;-1.786;2023-04-21T03:22:32;100845.00;;;16.19;47.00
53246;BME280;39569;51.090;-1.786;2023-04-21T03:24:59;100843.13;;;16.39;46.83
53246;BME280;39569;51.090;-1.786;2023-04-21T03:27:26;100834.81;;;16.27;46.89
53246;BME280;39569;51.090;-1.786;2023-04-21T03:29:53;100831.09;;;16.35;46.74
53246;BME280;39569;51.090;-1.786;2023-04-21T03:32:19;100824.88;;;16.15;47.08
53246;BME280;39569;51.090;-1.786;2023-04-21T03:34:46;100824.47;;;16.31;46.83
53246;BME280;39569;51.090;-1.786;2023-04-21T03:37:15;100811.84;;;16.25;47.20
53246;BME280;39569;51.090;-1.786;2023-04-21T03:39:42;100811.81;;;16.05;47.57
53246;BME280;39569;51.090;-1.786;2023-04-21T03:42:09;100807.47;;;16.11;47.48
53246;BME280;39569;51.090;-1.786;2023-04-21T03:44:36;100807.06;;;16.01;47.67
53246;BME280;39569;51.090;-1.786;2023-04-21T03:47:03;100800.03;;;15.93;47.79
53246;BME280;39569;51.090;-1.786;2023-04-21T03:49:29;100805.81;;;16.10;47.25
53246;BME280;39569;51.090;-1.786;2023-04-21T03:51:56;100801.88;;;15.93;47.67
53246;BME280;39569;51.090;-1.786;2023-04-21T03:54:24;100798.16;;;16.13;47.21
53246;BME280;39569;51.090;-1.786;2023-04-21T03:56:51;100795.25;;;15.95;47.73
53246;BME280;39569;51.090;-1.786;2023-04-21T03:59:18;100790.69;;;16.02;47.81
53246;BME280;39569;51.090;-1.786;2023-04-21T04:01:45;100778.91;;;15.77;48.34
53246;BME280;39569;51.090;-1.786;2023-04-21T04:04:12;100779.50;;;15.99;47.93
53246;BME280;39569;51.090;-1.786;2023-04-21T04:06:39;100774.09;;;16.18;47.39
53246;BME280;39569;51.090;-1.786;2023-04-21T04:09:06;100762.47;;;16.31;47.16
53246;BME280;39569;51.090;-1.786;2023-04-21T04:11:34;100764.34;;;16.24;47.51
53246;BME280;39569;51.090;-1.786;2023-04-21T04:14:01;100758.97;;;16.11;47.62
53246;BME280;39569;51.090;-1.786;2023-04-21T04:16:28;100762.94;;;16.08;47.76
53246;BME280;39569;51.090;-1.786;2023-04-21T04:18:55;100761.25;;;16.27;47.48
53246;BME280;39569;51.090;-1.786;2023-04-21T04:21:22;100755.22;;;16.25;47.33
53246;BME280;39569;51.090;-1.786;2023-04-21T04:23:49;100755.63;;;16.22;47.58
53246;BME280;39569;51.090;-1.786;2023-04-21T04:26:16;100751.06;;;16.35;47.00
53246;BME280;39569;51.090;-1.786;2023-04-21T04:28:44;100742.34;;;16.33;47.21
53246;BME280;39569;51.090;-1.786;2023-04-21T04:31:12;100745.72;;;15.83;48.30
53246;BME280;39569;51.090;-1.786;2023-04-21T04:33:40;100740.91;;;16.24;47.32
53246;BME280;39569;51.090;-1.786;2023-04-21T04:36:07;100740.31;;;16.22;47.27
53246;BME280;39569;51.090;-1.786;2023-04-21T04:38:34;100744.38;;;16.44;46.74
53246;BME280;39569;51.090;-1.786;2023-04-21T04:41:02;100732.59;;;16.39;46.67
53246;BME280;39569;51.090;-1.786;2023-04-21T04:43:29;100728.47;;;16.36;46.80
53246;BME280;39569;51.090;-1.786;2023-04-21T04:45:59;100736.72;;;16.54;46.46
53246;BME280;39569;51.090;-1.786;2023-04-21T04:48:25;100726.16;;;16.33;46.63
53246;BME280;39569;51.090;-1.786;2023-04-21T04:50:52;100725.16;;;16.28;46.72
53246;BME280;39569;51.090;-1.786;2023-04-21T04:53:19;100732.03;;;16.17;46.87
53246;BME280;39569;51.090;-1.786;2023-04-21T04:55:46;100730.19;;;15.98;47.45
53246;BME280;39569;51.090;-1.786;2023-04-21T04:58:13;100727.28;;;15.93;47.22
53246;BME280;39569;51.090;-1.786;2023-04-21T05:00:40;100727.91;;;15.89;47.21
53246;BME280;39569;51.090;-1.786;2023-04-21T05:03:08;100724.19;;;15.90;46.96
53246;BME280;39569;51.090;-1.786;2023-04-21T05:05:35;100727.09;;;15.49;47.88
53246;BME280;39569;51.090;-1.786;2023-04-21T05:08:01;100724.63;;;15.60;47.47
53246;BME280;39569;51.090;-1.786;2023-04-21T05:10:28;100722.75;;;15.54;47.47
53246;BME280;39569;51.090;-1.786;2023-04-21T05:12:55;100734.47;;;15.14;48.35
53246;BME280;39569;51.090;-1.786;2023-04-21T05:15:22;100731.97;;;15.06;48.43
53246;BME280;39569;51.090;-1.786;2023-04-21T05:17:49;100736.31;;;15.07;48.47
53246;BME280;39569;51.090;-1.786;2023-04-21T05:20:17;100733.66;;;15.14;48.11
53246;BME280;39569;51.090;-1.786;2023-04-21T05:22:44;100728.22;;;15.07;48.18
53246;BME280;39569;51.090;-1.786;2023-04-21T05:25:10;100729.84;;;14.89;48.67
53246;BME280;39569;51.090;-1.786;2023-04-21T05:27:39;100729.03;;;14.95;48.36
53246;BME280;39569;51.090;-1.786;2023-04-21T05:30:07;100735.75;;;14.64;49.22
53246;BME280;39569;51.090;-1.786;2023-04-21T05:32:34;100732.09;;;14.78;48.86
53246;BME280;39569;51.090;-1.786;2023-04-21T05:35:01;100736.25;;;14.88;48.52
53246;BME280;39569;51.090;-1.786;2023-04-21T05:37:30;100736.22;;;14.74;49.15
53246;BME280;39569;51.090;-1.786;2023-04-21T05:39:56;100736.25;;;14.88;48.76
53246;BME280;39569;51.090;-1.786;2023-04-21T05:42:23;100731.72;;;14.88;48.88
53246;BME280;39569;51.090;-1.786;2023-04-21T05:44:50;100723.75;;;14.67;49.13
53246;BME280;39569;51.090;-1.786;2023-04-21T05:47:18;100736.78;;;14.70;49.35
53246;BME280;39569;51.090;-1.786;2023-04-21T05:49:45;100729.31;;;14.59;49.98
53246;BME280;39569;51.090;-1.786;2023-04-21T05:52:14;100726.50;;;14.73;49.60
53246;BME280;39569;51.090;-1.786;2023-04-21T05:54:43;100716.00;;;14.92;49.29
53246;BME280;39569;51.090;-1.786;2023-04-21T05:57:10;100710.19;;;14.95;49.32
53246;BME280;39569;51.090;-1.786;2023-04-21T05:59:37;100710.44;;;15.06;48.70
53246;BME280;39569;51.090;-1.786;2023-04-21T06:02:04;100708.81;;;15.12;48.74
53246;BME280;39569;51.090;-1.786;2023-04-21T06:04:30;100709.91;;;15.69;47.50
53246;BME280;39569;51.090;-1.786;2023-04-21T06:07:02;100712.31;;;14.99;48.65
53246;BME280;39569;51.090;-1.786;2023-04-21T06:09:29;100713.19;;;15.32;48.02
53246;BME280;39569;51.090;-1.786;2023-04-21T06:11:57;100707.63;;;15.86;47.03
53246;BME280;39569;51.090;-1.786;2023-04-21T06:14:24;100716.53;;;15.47;48.08
53246;BME280;39569;51.090;-1.786;2023-04-21T06:16:51;100717.78;;;15.71;47.25
53246;BME280;39569;51.090;-1.786;2023-04-21T06:19:18;100716.91;;;16.10;46.46
53246;BME280;39569;51.090;-1.786;2023-04-21T06:21:44;100716.03;;;16.22;46.08
53246;BME280;39569;51.090;-1.786;2023-04-21T06:24:11;100711.66;;;16.34;45.56
53246;BME280;39569;51.090;-1.786;2023-04-21T06:26:39;100713.09;;;16.50;45.24
53246;BME280;39569;51.090;-1.786;2023-04-21T06:29:07;100711.06;;;16.26;45.97
53246;BME280;39569;51.090;-1.786;2023-04-21T06:31:34;100708.97;;;16.28;45.43
53246;BME280;39569;51.090;-1.786;2023-04-21T06:34:00;100702.69;;;16.60;44.95
53246;BME280;39569;51.090;-1.786;2023-04-21T06:36:27;100698.84;;;16.81;44.61
53246;BME280;39569;51.090;-1.786;2023-04-21T06:38:54;100699.59;;;16.56;45.07
53246;BME280;39569;51.090;-1.786;2023-04-21T06:41:21;100697.13;;;16.48;44.84
53246;BME280;39569;51.090;-1.786;2023-04-21T06:43:47;100692.41;;;16.24;45.29
53246;BME280;39569;51.090;-1.786;2023-04-21T06:46:16;100690.22;;;16.65;44.67
53246;BME280;39569;51.090;-1.786;2023-04-21T06:48:42;100688.41;;;16.91;44.12
53246;BME280;39569;51.090;-1.786;2023-04-21T06:51:09;100686.56;;;16.85;44.30
53246;BME280;39569;51.090;-1.786;2023-04-21T06:53:36;100681.63;;;17.13;43.60
53246;BME280;39569;51.090;-1.786;2023-04-21T06:56:03;100669.00;;;17.38;43.02
53246;BME280;39569;51.090;-1.786;2023-04-21T06:58:30;100668.53;;;17.16;43.84
53246;BME280;39569;51.090;-1.786;2023-04-21T07:00:57;100673.53;;;17.13;44.18
53246;BME280;39569;51.090;-1.786;2023-04-21T07:03:25;100664.41;;;17.70;43.18
53246;BME280;39569;51.090;-1.786;2023-04-21T07:05:52;100657.22;;;17.32;43.59
53246;BME280;39569;51.090;-1.786;2023-04-21T07:08:19;100658.19;;;17.62;43.64
53246;BME280;39569;51.090;-1.786;2023-04-21T07:10:45;100652.41;;;17.59;43.53
53246;BME280;39569;51.090;-1.786;2023-04-21T07:13:12;100645.19;;;17.96;42.57
53246;BME280;39569;51.090;-1.786;2023-04-21T07:15:40;100638.31;;;18.18;42.99
53246;BME280;39569;51.090;-1.786;2023-04-21T07:18:06;100640.19;;;18.17;42.70
53246;BME280;39569;51.090;-1.786;2023-04-21T07:20:35;100638.84;;;18.74;42.24
53246;BME280;39569;51.090;-1.786;2023-04-21T07:23:02;100635.88;;;18.64;42.01
53246;BME280;39569;51.090;-1.786;2023-04-21T07:25:29;100623.25;;;18.88;41.70
53246;BME280;39569;51.090;-1.786;2023-04-21T07:27:55;100622.06;;;18.84;41.89
53246;BME280;39569;51.090;-1.786;2023-04-21T07:30:22;100623.75;;;18.67;42.03
53246;BME280;39569;51.090;-1.786;2023-04-21T07:32:49;100626.59;;;17.88;42.57
53246;BME280;39569;51.090;-1.786;2023-04-21T07:35:16;100631.38;;;18.40;42.40
53246;BME280;39569;51.090;-1.786;2023-04-21T07:37:44;100621.22;;;18.35;42.45
53246;BME280;39569;51.090;-1.786;2023-04-21T07:40:11;100615.56;;;18.55;42.76
53246;BME280;39569;51.090;-1.786;2023-04-21T07:42:38;100622.13;;;18.66;42.52
53246;BME280;39569;51.090;-1.786;2023-04-21T07:45:05;100624.13;;;18.70;42.56
53246;BME280;39569;51.090;-1.786;2023-04-21T07:47:32;100608.72;;;19.12;41.30
53246;BME280;39569;51.090;-1.786;2023-04-21T07:49:59;100613.44;;;18.75;41.55
53246;BME280;39569;51.090;-1.786;2023-04-21T07:52:26;100612.31;;;18.83;41.83
53246;BME280;39569;51.090;-1.786;2023-04-21T07:54:54;100610.56;;;18.88;42.19
53246;BME280;39569;51.090;-1.786;2023-04-21T07:57:21;100607.00;;;18.88;41.78
53246;BME280;39569;51.090;-1.786;2023-04-21T07:59:48;100594.06;;;18.90;41.85
53246;BME280;39569;51.090;-1.786;2023-04-21T08:02:16;100602.75;;;18.80;41.99
53246;BME280;39569;51.090;-1.786;2023-04-21T08:04:43;100597.06;;;18.70;41.87
53246;BME280;39569;51.090;-1.786;2023-04-21T08:07:10;100596.38;;;18.75;41.93
53246;BME280;39569;51.090;-1.786;2023-04-21T08:09:37;100593.56;;;18.81;42.10
53246;BME280;39569;51.090;-1.786;2023-04-21T08:12:05;100593.72;;;18.86;42.35
53246;BME280;39569;51.090;-1.786;2023-04-21T08:14:32;100592.91;;;18.97;41.67
53246;BME280;39569;51.090;-1.786;2023-04-21T08:16:59;100589.53;;;18.72;42.25
53246;BME280;39569;51.090;-1.786;2023-04-21T08:19:26;100583.97;;;19.20;41.80
53246;BME280;39569;51.090;-1.786;2023-04-21T08:21:53;100582.69;;;18.99;41.67
53246;BME280;39569;51.090;-1.786;2023-04-21T08:24:19;100581.22;;;19.38;41.20
53246;BME280;39569;51.090;-1.786;2023-04-21T08:26:46;100577.75;;;19.19;41.34
53246;BME280;39569;51.090;-1.786;2023-04-21T08:29:14;100577.09;;;19.35;41.54
53246;BME280;39569;51.090;-1.786;2023-04-21T08:31:41;100575.53;;;19.28;41.66
53246;BME280;39569;51.090;-1.786;2023-04-21T08:34:08;100573.91;;;19.38;41.47
53246;BME280;39569;51.090;-1.786;2023-04-21T08:36:35;100578.22;;;19.16;41.72
53246;BME280;39569;51.090;-1.786;2023-04-21T08:39:02;100565.66;;;19.56;41.41
53246;BME280;39569;51.090;-1.786;2023-04-21T08:41:29;100561.28;;;20.30;40.23
53246;BME280;39569;51.090;-1.786;2023-04-21T08:43:56;100562.50;;;20.22;40.55
53246;BME280;39569;51.090;-1.786;2023-04-21T08:46:26;100554.78;;;19.91;40.03
53246;BME280;39569;51.090;-1.786;2023-04-21T08:48:53;100558.69;;;19.84;40.61
53246;BME280;39569;51.090;-1.786;2023-04-21T08:51:21;100564.34;;;19.71;40.97
53246;BME280;39569;51.090;-1.786;2023-04-21T08:53:48;100551.16;;;20.25;40.24
53246;BME280;39569;51.090;-1.786;2023-04-21T08:56:16;100548.16;;;20.38;40.02
53246;BME280;39569;51.090;-1.786;2023-04-21T08:58:43;100546.47;;;20.21;40.15
53246;BME280;39569;51.090;-1.786;2023-04-21T09:01:09;100555.75;;;19.16;42.09
53246;BME280;39569;51.090;-1.786;2023-04-21T09:03:38;100552.56;;;19.53;41.16
53246;BME280;39569;51.090;-1.786;2023-04-21T09:06:06;100554.19;;;19.78;41.00
53246;BME280;39569;51.090;-1.786;2023-04-21T09:08:36;100558.34;;;19.57;41.50
53246;BME280;39569;51.090;-1.786;2023-04-21T09:11:04;100549.75;;;20.51;40.11
53246;BME280;39569;51.090;-1.786;2023-04-21T09:13:33;100545.28;;;20.45;39.94
53246;BME280;39569;51.090;-1.786;2023-04-21T09:16:00;100541.06;;;20.66;39.85
53246;BME280;39569;51.090;-1.786;2023-04-21T09:18:29;100555.28;;;20.28;39.99
53246;BME280;39569;51.090;-1.786;2023-04-21T09:21:09;100538.56;;;20.08;41.11
53246;BME280;39569;51.090;-1.786;2023-04-21T09:23:43;100546.88;;;19.90;40.79
53246;BME280;39569;51.090;-1.786;2023-04-21T09:26:10;100547.88;;;19.37;41.60
53246;BME280;39569;51.090;-1.786;2023-04-21T09:28:40;100548.09;;;19.59;41.16
53246;BME280;39569;51.090;-1.786;2023-04-21T09:31:12;100544.31;;;19.72;41.24
53246;BME280;39569;51.090;-1.786;2023-04-21T09:33:44;100546.50;;;19.98;40.94
53246;BME280;39569;51.090;-1.786;2023-04-21T09:36:17;100543.94;;;19.80;40.83
53246;BME280;39569;51.090;-1.786;2023-04-21T09:38:48;100547.06;;;19.60;41.12
53246;BME280;39569;51.090;-1.786;2023-04-21T09:41:16;100546.22;;;20.11;40.61
53246;BME280;39569;51.090;-1.786;2023-04-21T09:43:43;100539.56;;;19.90;40.98
53246;BME280;39569;51.090;-1.786;2023-04-21T09:46:10;100539.81;;;19.77;41.19
53246;BME280;39569;51.090;-1.786;2023-04-21T09:48:42;100539.84;;;20.17;40.97
53246;BME280;39569;51.090;-1.786;2023-04-21T09:51:10;100532.06;;;20.09;40.71
53246;BME280;39569;51.090;-1.786;2023-04-21T09:53:40;100525.81;;;20.48;40.41
53246;BME280;39569;51.090;-1.786;2023-04-21T09:56:10;100532.41;;;20.24;40.01
53246;BME280;39569;51.090;-1.786;2023-04-21T09:58:40;100534.25;;;19.95;40.94
53246;BME280;39569;51.090;-1.786;2023-04-21T10:01:10;100524.63;;;20.44;40.48
53246;BME280;39569;51.090;-1.786;2023-04-21T10:03:38;100528.66;;;20.25;40.88
53246;BME280;39569;51.090;-1.786;2023-04-21T10:06:05;100530.66;;;20.46;40.71
53246;BME280;39569;51.090;-1.786;2023-04-21T10:08:33;100524.38;;;20.29;40.63
53246;BME280;39569;51.090;-1.786;2023-04-21T10:11:02;100524.38;;;19.89;41.55
53246;BME280;39569;51.090;-1.786;2023-04-21T10:13:31;100530.09;;;20.04;42.02
53246;BME280;39569;51.090;-1.786;2023-04-21T10:16:03;100516.41;;;20.39;41.62
53246;BME280;39569;51.090;-1.786;2023-04-21T10:18:34;100513.72;;;20.39;40.67
53246;BME280;39569;51.090;-1.786;2023-04-21T10:21:05;100507.59;;;20.60;40.38
53246;BME280;39569;51.090;-1.786;2023-04-21T10:23:36;100505.28;;;20.69;40.40
53246;BME280;39569;51.090;-1.786;2023-04-21T10:26:08;100510.31;;;20.60;40.38
53246;BME280;39569;51.090;-1.786;2023-04-21T10:28:39;100497.38;;;20.67;40.21
53246;BME280;39569;51.090;-1.786;2023-04-21T10:31:30;100493.31;;;20.53;40.27
53246;BME280;39569;51.090;-1.786;2023-04-21T10:34:16;100494.34;;;20.64;39.72
53246;BME280;39569;51.090;-1.786;2023-04-21T10:37:09;100488.44;;;21.00;39.29
53246;BME280;39569;51.090;-1.786;2023-04-21T10:39:45;100478.28;;;21.28;39.31
53246;BME280;39569;51.090;-1.786;2023-04-21T10:42:29;100488.69;;;20.37;40.08
53246;BME280;39569;51.090;-1.786;2023-04-21T10:45:09;100490.16;;;20.28;41.65
53246;BME280;39569;51.090;-1.786;2023-04-21T10:47:39;100495.81;;;18.89;43.94
53246;BME280;39569;51.090;-1.786;2023-04-21T10:50:17;100495.91;;;18.94;44.68
53246;BME280;39569;51.090;-1.786;2023-04-21T10:52:56;100487.31;;;18.74;45.28
53246;BME280;39569;51.090;-1.786;2023-04-21T10:55:27;100491.19;;;18.37;45.59
53246;BME280;39569;51.090;-1.786;2023-04-21T10:57:56;100484.56;;;18.21;45.89
53246;BME280;39569;51.090;-1.786;2023-04-21T11:00:24;100489.38;;;18.19;46.16
53246;BME280;39569;51.090;-1.786;2023-04-21T11:02:55;100483.94;;;18.08;46.38
53246;BME280;39569;51.090;-1.786;2023-04-21T11:05:30;100484.16;;;18.36;46.09
53246;BME280;39569;51.090;-1.786;2023-04-21T11:08:07;100484.34;;;17.93;46.47
53246;BME280;39569;51.090;-1.786;2023-04-21T11:10:46;100489.03;;;17.98;46.93
53246;BME280;39569;51.090;-1.786;2023-04-21T11:13:15;100484.88;;;17.84;47.21
53246;BME280;39569;51.090;-1.786;2023-04-21T11:15:54;100482.63;;;17.81;46.85
53246;BME280;39569;51.090;-1.786;2023-04-21T11:18:31;100487.81;;;18.12;46.78
53246;BME280;39569;51.090;-1.786;2023-04-21T11:21:08;100482.53;;;18.17;46.58
53246;BME280;39569;51.090;-1.786;2023-04-21T11:23:38;100482.34;;;18.30;46.69
53246;BME280;39569;51.090;-1.786;2023-04-21T11:26:06;100477.44;;;18.09;47.29
53246;BME280;39569;51.090;-1.786;2023-04-21T11:28:34;100477.19;;;18.28;46.51
53246;BME280;39569;51.090;-1.786;2023-04-21T11:31:01;100485.19;;;18.35;46.27
53246;BME280;39569;51.090;-1.786;2023-04-21T11:33:29;100482.91;;;18.50;45.90
53246;BME280;39569;51.090;-1.786;2023-04-21T11:35:56;100481.03;;;18.21;46.61
53246;BME280;39569;51.090;-1.786;2023-04-21T11:38:24;100479.59;;;18.07;46.76
53246;BME280;39569;51.090;-1.786;2023-04-21T11:40:51;100486.25;;;18.04;46.62
53246;BME280;39569;51.090;-1.786;2023-04-21T11:43:20;100473.34;;;18.06;46.31
53246;BME280;39569;51.090;-1.786;2023-04-21T11:45:51;100471.47;;;18.07;46.60
53246;BME280;39569;51.090;-1.786;2023-04-21T11:48:18;100478.41;;;18.44;46.13
53246;BME280;39569;51.090;-1.786;2023-04-21T11:50:48;100483.63;;;18.27;46.50
53246;BME280;39569;51.090;-1.786;2023-04-21T11:53:15;100483.81;;;18.14;46.31
53246;BME280;39569;51.090;-1.786;2023-04-21T11:55:42;100481.94;;;18.15;45.99
53246;BME280;39569;51.090;-1.786;2023-04-21T11:58:09;100480.13;;;18.27;46.28
53246;BME280;39569;51.090;-1.786;2023-04-21T12:00:42;100483.31;;;18.35;46.00
53246;BME280;39569;51.090;-1.786;2023-04-21T12:03:11;100489.09;;;18.39;46.22
53246;BME280;39569;51.090;-1.786;2023-04-21T12:05:38;100487.88;;;18.35;46.42
53246;BME280;39569;51.090;-1.786;2023-04-21T12:08:05;100486.97;;;18.41;46.53
53246;BME280;39569;51.090;-1.786;2023-04-21T12:10:32;100483.19;;;18.60;46.22
53246;BME280;39569;51.090;-1.786;2023-04-21T12:12:59;100493.84;;;18.55;46.22
53246;BME280;39569;51.090;-1.786;2023-04-21T12:15:28;100496.78;;;18.42;46.58
53246;BME280;39569;51.090;-1.786;2023-04-21T12:17:56;100491.19;;;18.07;46.95
53246;BME280;39569;51.090;-1.786;2023-04-21T12:20:24;100495.88;;;18.30;46.16
53246;BME280;39569;51.090;-1.786;2023-04-21T12:22:53;100493.13;;;18.18;46.16
53246;BME280;39569;51.090;-1.786;2023-04-21T12:25:21;100487.16;;;18.28;46.31
53246;BME280;39569;51.090;-1.786;2023-04-21T12:27:49;100489.91;;;18.39;46.21
53246;BME280;39569;51.090;-1.786;2023-04-21T12:30:16;100490.34;;;18.36;46.14
53246;BME280;39569;51.090;-1.786;2023-04-21T12:32:43;100494.13;;;18.06;46.05
53246;BME280;39569;51.090;-1.786;2023-04-21T12:35:11;100502.59;;;17.80;46.63
53246;BME280;39569;51.090;-1.786;2023-04-21T12:37:39;100506.28;;;17.06;48.65
53246;BME280;39569;51.090;-1.786;2023-04-21T12:40:07;100507.38;;;16.74;49.55
53246;BME280;39569;51.090;-1.786;2023-04-21T12:42:34;100508.94;;;16.57;48.86
53246;BME280;39569;51.090;-1.786;2023-04-21T12:45:01;100511.28;;;16.47;48.89